Time;durP1;ratioP1;P1;durP2;ratioP2;P2;SDS_P1;SDS_P2;PMS_P1;PMS_P2;Temp;Humidity;BMP_temperature;BMP_pressure;BME280_temperature;BME280_humidity;BME280_pressure;Samples;Min_cycle;Max_cycle;Signal;HPM_P1;HPM_P2
2021/03/05 00:01:29;;;;;;;14.37;12.97;;;;;;;;;;5119899;28;20488;-11
2021/03/05 00:03:57;;;;;;;14.33;12.93;;;;;;;;;;5119047;28;20481;-13
2021/03/05 00:06:24;;;;;;;18.90;14.43;;;;;;;;;;5115752;28;20488;-11
2021/03/05 00:08:53;;;;;;;15.37;13.87;;;;;;;;;;5118921;28;20427;-13
2021/03/05 00:11:21;;;;;;;15.93;14.33;;;;;;;;;;5118681;28;20439;-13
2021/03/05 00:13:49;;;;;;;16.20;13.60;;;;;;;;;;5119760;28;20454;-13
2021/03/05 00:16:17;;;;;;;17.80;13.60;;;;;;;;;;5118852;28;20438;-13
2021/03/05 00:18:47;;;;;;;14.40;12.30;;;;;;;;;;5118858;28;20438;-9
2021/03/05 00:21:14;;;;;;;14.07;12.57;;;;;;;;;;5099946;28;20450;-10
2021/03/05 00:23:43;;;;;;;15.30;11.90;;;;;;;;;;5120210;28;20458;-9
2021/03/05 00:26:15;;;;;;;14.00;12.53;;;;;;;;;;5119087;28;20545;-9
2021/03/05 00:28:43;;;;;;;11.87;10.73;;;;;;;;;;5101680;28;20458;-9
2021/03/05 00:31:13;;;;;;;12.53;11.23;;;;;;;;;;5101244;28;20534;-9
2021/03/05 00:33:41;;;;;;;13.73;12.30;;;;;;;;;;5119133;28;20435;-10
2021/03/05 00:36:09;;;;;;;14.07;10.77;;;;;;;;;;5118417;28;20545;-10
2021/03/05 00:38:37;;;;;;;11.57;10.47;;;;;;;;;;5099544;28;20546;-10
2021/03/05 00:41:05;;;;;;;12.17;11.07;;;;;;;;;;5117905;28;20534;-9
2021/03/05 00:43:36;;;;;;;13.30;12.00;;;;;;;;;;5116891;28;20482;-11
2021/03/05 00:46:04;;;;;;;15.40;12.93;;;;;;;;;;5118253;28;20857;-10
2021/03/05 00:48:33;;;;;;;14.10;12.73;;;;;;;;;;5117080;28;20473;-10
2021/03/05 00:51:05;;;;;;;18.43;14.63;;;;;;;;;;5099942;28;20455;-10
2021/03/05 00:53:33;;;;;;;15.40;13.60;;;;;;;;;;5077717;28;20813;-11
2021/03/05 00:56:01;;;;;;;15.57;14.07;;;;;;;;;;5097541;28;20454;-11
2021/03/05 00:58:31;;;;;;;22.00;16.10;;;;;;;;;;5096427;28;20436;-10
2021/03/05 01:01:07;;;;;;;18.87;15.30;;;;;;;;;;5098145;28;20509;-10
2021/03/05 01:03:36;;;;;;;23.17;17.17;;;;;;;;;;5099084;28;20556;-10
2021/03/05 01:06:04;;;;;;;19.77;17.10;;;;;;;;;;5097973;28;20546;-11
2021/03/05 01:08:31;;;;;;;27.03;18.80;;;;;;;;;;5096991;28;20470;-10
2021/03/05 01:11:02;;;;;;;23.07;18.93;;;;;;;;;;5096944;28;20443;-10
2021/03/05 01:13:30;;;;;;;28.43;20.70;;;;;;;;;;5097160;28;20433;-9
2021/03/05 01:15:58;;;;;;;29.77;22.07;;;;;;;;;;5092480;28;20465;-9
2021/03/05 01:18:27;;;;;;;28.17;21.00;;;;;;;;;;5078384;28;20533;-10
2021/03/05 01:20:55;;;;;;;33.60;23.17;;;;;;;;;;5097429;28;20444;-10
2021/03/05 01:23:24;;;;;;;29.33;22.93;;;;;;;;;;5097146;28;20467;-10
2021/03/05 01:25:52;;;;;;;28.40;21.77;;;;;;;;;;5095898;28;20471;-10
2021/03/05 01:28:20;;;;;;;31.97;22.47;;;;;;;;;;5098367;28;20444;-11
2021/03/05 01:30:48;;;;;;;33.83;24.77;;;;;;;;;;5098697;28;20436;-11
2021/03/05 01:33:15;;;;;;;32.23;24.50;;;;;;;;;;5098532;28;20470;-8
2021/03/05 01:35:44;;;;;;;31.23;24.17;;;;;;;;;;5097890;28;20531;-10
2021/03/05 01:38:15;;;;;;;31.53;25.10;;;;;;;;;;5097978;28;20444;-10
2021/03/05 01:40:45;;;;;;;34.73;26.03;;;;;;;;;;5074146;28;20778;-7
2021/03/05 01:43:13;;;;;;;35.20;26.20;;;;;;;;;;5081448;28;21141;-8
2021/03/05 01:45:41;;;;;;;32.97;24.90;;;;;;;;;;5118490;28;20713;-8
2021/03/05 01:48:12;;;;;;;32.83;26.73;;;;;;;;;;5116238;28;20427;-9
2021/03/05 01:50:48;;;;;;;35.50;27.30;;;;;;;;;;5116992;28;20512;-9
2021/03/05 01:53:17;;;;;;;36.60;24.87;;;;;;;;;;5099231;28;20534;-9
2021/03/05 01:55:46;;;;;;;35.43;26.10;;;;;;;;;;5117954;28;20522;-9
2021/03/05 01:58:14;;;;;;;33.60;27.20;;;;;;;;;;5116952;28;20451;-8
2021/03/05 02:00:43;;;;;;;34.27;26.77;;;;;;;;;;5099486;28;20787;-9
2021/03/05 02:03:14;;;;;;;35.33;26.80;;;;;;;;;;5117175;28;20459;-9
2021/03/05 02:05:42;;;;;;;31.50;25.77;;;;;;;;;;5117110;28;20523;-9
2021/03/05 02:08:09;;;;;;;35.27;25.47;;;;;;;;;;5115346;28;21691;-9
2021/03/05 02:10:38;;;;;;;32.40;24.93;;;;;;;;;;5117130;28;20431;-8
2021/03/05 02:13:07;;;;;;;32.30;25.17;;;;;;;;;;5095828;28;20737;-8
2021/03/05 02:15:37;;;;;;;36.90;27.17;;;;;;;;;;5096256;28;20772;-8
2021/03/05 02:18:09;;;;;;;36.13;27.00;;;;;;;;;;5096181;28;20466;-8
2021/03/05 02:20:41;;;;;;;38.87;27.30;;;;;;;;;;5094918;28;20432;-8
2021/03/05 02:23:26;;;;;;;36.50;28.00;;;;;;;;;;5095564;28;20521;-8
2021/03/05 02:26:15;;;;;;;35.17;25.40;;;;;;;;;;5095185;28;20486;-9
2021/03/05 02:28:58;;;;;;;37.40;27.37;;;;;;;;;;5102037;28;20478;-8
2021/03/05 02:31:31;;;;;;;41.63;27.20;;;;;;;;;;5114036;28;20678;-10
2021/03/05 02:34:02;;;;;;;40.63;28.50;;;;;;;;;;5114411;28;20482;-8
2021/03/05 02:36:35;;;;;;;39.53;27.07;;;;;;;;;;5116037;28;20439;-9
2021/03/05 02:39:05;;;;;;;34.10;27.37;;;;;;;;;;5116659;28;20480;-9
2021/03/05 02:41:36;;;;;;;38.33;27.90;;;;;;;;;;5110351;28;20527;-8
2021/03/05 02:44:04;;;;;;;42.87;26.60;;;;;;;;;;5096722;28;20459;-9
2021/03/05 02:46:34;;;;;;;43.33;28.83;;;;;;;;;;5095186;28;20870;-10
2021/03/05 02:49:03;;;;;;;37.37;27.00;;;;;;;;;;5095875;28;20839;-8
2021/03/05 02:51:33;;;;;;;40.80;27.20;;;;;;;;;;5096908;28;20691;-9
2021/03/05 02:54:02;;;;;;;38.60;26.73;;;;;;;;;;5095172;28;20931;-10
2021/03/05 02:56:30;;;;;;;36.27;27.07;;;;;;;;;;5096379;28;20466;-8
2021/03/05 02:58:58;;;;;;;35.53;25.80;;;;;;;;;;5104744;28;20518;-9
2021/03/05 03:01:26;;;;;;;41.80;27.10;;;;;;;;;;5115784;28;20443;-9
2021/03/05 03:03:56;;;;;;;37.80;28.17;;;;;;;;;;5116479;28;20459;-9
2021/03/05 03:06:25;;;;;;;40.03;27.27;;;;;;;;;;5115768;28;20427;-8
2021/03/05 03:08:57;;;;;;;39.50;28.03;;;;;;;;;;5117275;28;20532;-9
2021/03/05 03:11:25;;;;;;;36.57;24.57;;;;;;;;;;5116657;28;20465;-8
2021/03/05 03:13:52;;;;;;;34.43;27.63;;;;;;;;;;5116487;28;20515;-10
2021/03/05 03:16:22;;;;;;;35.53;27.07;;;;;;;;;;5118223;28;20512;-9
2021/03/05 03:18:56;;;;;;;39.53;25.67;;;;;;;;;;5082929;28;20486;-9
2021/03/05 03:21:27;;;;;;;34.27;25.50;;;;;;;;;;5079059;28;20483;-9
2021/03/05 03:23:55;;;;;;;35.13;27.13;;;;;;;;;;5102692;28;20787;-10
2021/03/05 03:26:24;;;;;;;33.77;23.70;;;;;;;;;;5116448;28;20475;-9
2021/03/05 03:28:53;;;;;;;30.03;23.93;;;;;;;;;;5116100;28;20534;-8
2021/03/05 03:31:22;;;;;;;36.77;26.20;;;;;;;;;;5117339;28;20438;-7
2021/03/05 03:33:50;;;;;;;32.80;23.73;;;;;;;;;;5121119;28;21123;-8
2021/03/05 03:36:18;;;;;;;34.93;24.37;;;;;;;;;;5102086;28;20530;-9
2021/03/05 03:38:48;;;;;;;41.43;27.27;;;;;;;;;;5099410;28;20465;-9
2021/03/05 03:41:15;;;;;;;37.10;25.90;;;;;;;;;;5099478;28;20450;-9
2021/03/05 03:43:44;;;;;;;33.60;25.07;;;;;;;;;;5100167;28;20530;-8
2021/03/05 03:46:11;;;;;;;36.00;25.57;;;;;;;;;;5098612;28;20447;-8
2021/03/05 03:48:43;;;;;;;31.93;24.83;;;;;;;;;;5103569;28;21229;-8
2021/03/05 03:51:12;;;;;;;32.23;25.20;;;;;;;;;;5120518;28;20731;-9
2021/03/05 03:53:41;;;;;;;36.10;25.63;;;;;;;;;;5115199;28;20467;-8
2021/03/05 03:56:10;;;;;;;31.33;24.10;;;;;;;;;;5097279;28;21124;-9
2021/03/05 03:58:39;;;;;;;36.20;27.57;;;;;;;;;;5100426;28;20918;-9
2021/03/05 04:01:09;;;;;;;30.93;24.70;;;;;;;;;;5111799;28;20435;-8
2021/03/05 04:03:38;;;;;;;32.73;25.60;;;;;;;;;;5119622;28;20482;-9
2021/03/05 04:06:08;;;;;;;33.50;24.83;;;;;;;;;;5117889;28;20865;-8
2021/03/05 04:08:36;;;;;;;31.80;25.17;;;;;;;;;;5100796;28;20448;-8
2021/03/05 04:11:03;;;;;;;29.37;22.50;;;;;;;;;;5099242;28;20451;-8
2021/03/05 04:13:32;;;;;;;25.77;22.43;;;;;;;;;;5102932;28;20528;-8
2021/03/05 04:16:01;;;;;;;25.20;21.83;;;;;;;;;;5119077;28;20703;-8
2021/03/05 04:18:33;;;;;;;23.70;20.93;;;;;;;;;;5101063;28;20822;-7
2021/03/05 04:21:05;;;;;;;26.37;21.87;;;;;;;;;;5119363;28;20466;-8
2021/03/05 04:23:34;;;;;;;33.80;22.17;;;;;;;;;;5118851;28;20478;-8
2021/03/05 04:26:03;;;;;;;28.47;23.20;;;;;;;;;;5117945;28;20438;-8
2021/03/05 04:28:32;;;;;;;30.33;22.67;;;;;;;;;;5119994;28;20457;-9
2021/03/05 04:31:04;;;;;;;26.93;22.30;;;;;;;;;;5119128;28;20427;-9
2021/03/05 04:33:31;;;;;;;27.43;22.63;;;;;;;;;;5118977;28;20497;-9
2021/03/05 04:35:59;;;;;;;30.73;23.30;;;;;;;;;;5117712;28;20462;-9
2021/03/05 04:38:27;;;;;;;28.50;21.47;;;;;;;;;;5090626;28;21088;-8
2021/03/05 04:40:54;;;;;;;29.07;21.70;;;;;;;;;;5078757;28;20464;-9
2021/03/05 04:43:23;;;;;;;31.03;21.50;;;;;;;;;;5077917;28;20543;-8
2021/03/05 04:45:50;;;;;;;26.27;21.43;;;;;;;;;;5076710;28;21017;-9
2021/03/05 04:48:20;;;;;;;32.37;23.73;;;;;;;;;;5074375;28;20540;-9
2021/03/05 04:50:49;;;;;;;31.67;24.00;;;;;;;;;;5074590;28;20459;-9
2021/03/05 04:53:16;;;;;;;31.00;22.37;;;;;;;;;;5076381;28;20511;-9
2021/03/05 04:55:46;;;;;;;32.20;23.73;;;;;;;;;;5075270;28;20433;-9
2021/03/05 04:58:14;;;;;;;28.10;24.10;;;;;;;;;;5093400;28;20435;-8
2021/03/05 05:00:41;;;;;;;28.80;23.40;;;;;;;;;;5094700;28;20467;-9
2021/03/05 05:03:09;;;;;;;35.67;24.07;;;;;;;;;;5091494;28;20829;-8
2021/03/05 05:05:40;;;;;;;34.23;25.00;;;;;;;;;;5094545;28;20475;-9
2021/03/05 05:08:09;;;;;;;33.43;24.60;;;;;;;;;;5094782;28;20475;-9
2021/03/05 05:10:36;;;;;;;27.73;22.70;;;;;;;;;;5093316;28;20479;-9
2021/03/05 05:13:04;;;;;;;33.47;24.17;;;;;;;;;;5094680;28;20540;-10
2021/03/05 05:15:32;;;;;;;22.43;19.10;;;;;;;;;;5094430;28;20447;-9
2021/03/05 05:17:59;;;;;;;19.00;16.13;;;;;;;;;;5092302;28;20444;-9
2021/03/05 05:20:28;;;;;;;21.97;16.30;;;;;;;;;;5092089;28;20506;-8
2021/03/05 05:22:57;;;;;;;19.53;15.57;;;;;;;;;;5093258;28;20438;-9
2021/03/05 05:25:25;;;;;;;12.77;11.53;;;;;;;;;;5092185;28;20491;-9
2021/03/05 05:27:53;;;;;;;11.33;10.30;;;;;;;;;;5085451;28;20475;-9
2021/03/05 05:30:24;;;;;;;12.17;11.03;;;;;;;;;;5110941;28;20485;-9
2021/03/05 05:32:55;;;;;;;12.10;10.90;;;;;;;;;;5112008;28;20905;-9
2021/03/05 05:35:23;;;;;;;11.67;10.50;;;;;;;;;;5111321;28;20434;-9
2021/03/05 05:37:53;;;;;;;12.67;10.90;;;;;;;;;;5094779;28;20846;-10
2021/03/05 05:40:23;;;;;;;11.03;10.10;;;;;;;;;;5111969;28;20435;-9
2021/03/05 05:42:51;;;;;;;11.00;10.00;;;;;;;;;;5110902;28;20534;-9
2021/03/05 05:45:19;;;;;;;11.07;10.10;;;;;;;;;;5111732;28;21231;-10
2021/03/05 05:47:48;;;;;;;12.03;10.83;;;;;;;;;;5091129;28;21039;-9
2021/03/05 05:50:15;;;;;;;10.60;9.67;;;;;;;;;;5097351;28;20462;-9
2021/03/05 05:52:45;;;;;;;11.33;10.23;;;;;;;;;;5093497;28;20450;-9
2021/03/05 05:55:15;;;;;;;9.30;8.57;;;;;;;;;;5106430;28;20451;-9
2021/03/05 05:57:44;;;;;;;10.50;9.60;;;;;;;;;;5107392;28;20554;-10
2021/03/05 06:00:13;;;;;;;12.00;10.90;;;;;;;;;;5108836;28;20432;-9
2021/03/05 06:02:44;;;;;;;11.63;10.63;;;;;;;;;;5109127;28;20435;-9
2021/03/05 06:05:14;;;;;;;11.23;10.27;;;;;;;;;;5089498;28;20511;-9
2021/03/05 06:07:43;;;;;;;11.03;10.13;;;;;;;;;;5108327;28;20801;-8
2021/03/05 06:10:13;;;;;;;10.83;10.00;;;;;;;;;;5107161;28;20553;-9
2021/03/05 06:12:41;;;;;;;11.30;10.40;;;;;;;;;;5107492;28;20438;-9
2021/03/05 06:15:10;;;;;;;12.43;11.30;;;;;;;;;;5089224;28;21045;-10
2021/03/05 06:17:45;;;;;;;10.93;9.90;;;;;;;;;;5085720;28;20927;-10
2021/03/05 06:20:13;;;;;;;11.70;10.60;;;;;;;;;;5085691;28;20443;-9
2021/03/05 06:22:42;;;;;;;11.23;10.23;;;;;;;;;;5084081;28;20450;-9
2021/03/05 06:25:10;;;;;;;13.17;11.97;;;;;;;;;;5080395;28;20526;-9
2021/03/05 06:27:40;;;;;;;12.00;11.00;;;;;;;;;;5083769;28;20481;-9
2021/03/05 06:30:10;;;;;;;11.83;10.87;;;;;;;;;;5080780;28;20440;-9
2021/03/05 06:32:40;;;;;;;14.67;10.40;;;;;;;;;;5081124;28;20968;-9
2021/03/05 06:35:10;;;;;;;11.23;10.13;;;;;;;;;;5080947;28;20443;-9
2021/03/05 06:37:48;;;;;;;10.47;9.57;;;;;;;;;;5080130;28;20501;-9
2021/03/05 06:40:16;;;;;;;11.30;10.10;;;;;;;;;;5078076;28;20442;-9
2021/03/05 06:42:52;;;;;;;10.43;9.43;;;;;;;;;;5079865;28;20507;-9
2021/03/05 06:45:28;;;;;;;11.17;10.17;;;;;;;;;;5058795;28;20487;-9
2021/03/05 06:48:03;;;;;;;11.00;9.90;;;;;;;;;;5079072;28;20439;-8
2021/03/05 06:50:32;;;;;;;9.83;8.87;;;;;;;;;;5099025;28;20554;-9
2021/03/05 06:53:01;;;;;;;11.47;10.00;;;;;;;;;;5063048;28;20446;-8
2021/03/05 06:55:38;;;;;;;11.93;10.70;;;;;;;;;;5076522;28;20455;-9
2021/03/05 06:58:09;;;;;;;11.77;9.70;;;;;;;;;;5098089;28;20554;-8
2021/03/05 07:00:37;;;;;;;11.07;10.00;;;;;;;;;;5073596;28;20793;-7
2021/03/05 07:03:19;;;;;;;12.63;11.43;;;;;;;;;;5094810;28;20442;-8
2021/03/05 07:05:53;;;;;;;12.27;11.07;;;;;;;;;;5092260;28;20485;-7
2021/03/05 07:08:40;;;;;;;11.73;10.50;;;;;;;;;;5089911;28;20502;-7
2021/03/05 07:11:09;;;;;;;14.40;11.10;;;;;;;;;;5077616;28;20474;-10
2021/03/05 07:13:51;;;;;;;11.37;10.17;;;;;;;;;;5058650;28;20495;-11
2021/03/05 07:16:19;;;;;;;10.73;9.70;;;;;;;;;;5076989;28;20436;-9
2021/03/05 07:18:49;;;;;;;12.47;11.17;;;;;;;;;;5078801;28;20512;-8
2021/03/05 07:21:18;;;;;;;12.13;10.10;;;;;;;;;;5077744;28;20481;-10
2021/03/05 07:23:46;;;;;;;11.70;10.50;;;;;;;;;;5077331;28;20473;-10
2021/03/05 07:26:17;;;;;;;11.40;10.20;;;;;;;;;;5058446;28;20487;-10
2021/03/05 07:28:47;;;;;;;12.47;11.27;;;;;;;;;;5068652;28;20514;-11
2021/03/05 07:31:18;;;;;;;12.80;11.47;;;;;;;;;;5062713;28;20427;-10
2021/03/05 07:33:50;;;;;;;13.53;12.23;;;;;;;;;;5069268;28;20468;-11
2021/03/05 07:36:19;;;;;;;16.87;12.67;;;;;;;;;;5058690;28;20463;-9
2021/03/05 07:38:52;;;;;;;18.90;14.50;;;;;;;;;;5074561;28;20491;-10
2021/03/05 07:41:21;;;;;;;16.63;14.33;;;;;;;;;;5091927;28;20774;-9
2021/03/05 07:43:51;;;;;;;17.23;13.10;;;;;;;;;;5109505;28;20439;-9
2021/03/05 07:46:19;;;;;;;19.97;15.47;;;;;;;;;;5110547;28;20429;-8
2021/03/05 07:48:48;;;;;;;16.87;15.17;;;;;;;;;;5080622;28;20530;-9
2021/03/05 07:51:16;;;;;;;15.63;13.37;;;;;;;;;;5075247;28;20463;-9
2021/03/05 07:53:51;;;;;;;13.67;12.37;;;;;;;;;;5097044;28;20459;-10
2021/03/05 07:56:39;;;;;;;15.63;12.77;;;;;;;;;;5091143;28;20564;-9
2021/03/05 07:59:07;;;;;;;15.67;13.90;;;;;;;;;;5074300;28;20434;-9
2021/03/05 08:01:55;;;;;;;13.03;11.80;;;;;;;;;;5093247;28;21098;-10
2021/03/05 08:04:35;;;;;;;14.60;12.30;;;;;;;;;;5039760;28;20491;-10
2021/03/05 08:07:47;;;;;;;14.70;12.33;;;;;;;;;;5077032;28;20459;-10
2021/03/05 08:10:30;;;;;;;14.87;12.10;;;;;;;;;;5090297;28;21280;-9
2021/03/05 08:13:00;;;;;;;14.23;12.47;;;;;;;;;;5071576;28;20466;-9
2021/03/05 08:15:29;;;;;;;13.67;12.10;;;;;;;;;;5087349;28;20470;-9
2021/03/05 08:17:56;;;;;;;14.03;12.13;;;;;;;;;;5059843;28;20447;-8
2021/03/05 08:20:43;;;;;;;17.77;14.60;;;;;;;;;;5053512;28;20592;-12
2021/03/05 08:23:11;;;;;;;14.33;12.70;;;;;;;;;;5055187;28;20446;-10
2021/03/05 08:25:54;;;;;;;17.33;12.63;;;;;;;;;;5080885;28;20475;-9
2021/03/05 08:28:46;;;;;;;13.33;12.13;;;;;;;;;;5058951;28;20486;-9
2021/03/05 08:31:32;;;;;;;12.80;11.53;;;;;;;;;;5076661;28;21087;-9
2021/03/05 08:34:15;;;;;;;13.03;11.73;;;;;;;;;;5101023;28;20427;-9
2021/03/05 08:36:58;;;;;;;14.00;12.53;;;;;;;;;;5079001;28;20510;-9
2021/03/05 08:39:26;;;;;;;11.80;10.63;;;;;;;;;;5092223;28;21377;-10
2021/03/05 08:42:14;;;;;;;13.93;12.40;;;;;;;;;;5091994;28;20439;-11
2021/03/05 08:45:03;;;;;;;17.20;13.70;;;;;;;;;;5069259;28;20476;-9
2021/03/05 08:47:32;;;;;;;14.23;12.70;;;;;;;;;;5055214;28;21249;-11
2021/03/05 08:50:00;;;;;;;14.27;12.77;;;;;;;;;;5076098;28;20427;-10
2021/03/05 08:52:28;;;;;;;14.40;12.93;;;;;;;;;;5071278;28;20451;-11
2021/03/05 08:54:56;;;;;;;15.90;12.63;;;;;;;;;;5062055;28;20562;-9
2021/03/05 08:57:26;;;;;;;14.93;13.20;;;;;;;;;;5076875;28;20500;-9
2021/03/05 08:59:57;;;;;;;16.43;13.70;;;;;;;;;;5079506;28;20440;-9
2021/03/05 09:02:30;;;;;;;15.73;12.33;;;;;;;;;;5060661;28;20450;-9
2021/03/05 09:04:58;;;;;;;15.73;13.03;;;;;;;;;;5064346;28;20530;-8
2021/03/05 09:07:28;;;;;;;14.90;13.33;;;;;;;;;;5058017;28;20476;-10
2021/03/05 09:09:58;;;;;;;13.93;11.70;;;;;;;;;;5058746;28;20919;-9
2021/03/05 09:12:28;;;;;;;13.27;11.77;;;;;;;;;;5060260;28;20454;-9
2021/03/05 09:15:02;;;;;;;13.50;11.80;;;;;;;;;;5055135;28;20537;-9
2021/03/05 09:17:32;;;;;;;16.03;13.13;;;;;;;;;;5066023;28;20447;-8
2021/03/05 09:20:01;;;;;;;15.67;12.90;;;;;;;;;;5060340;28;20433;-10
2021/03/05 09:22:30;;;;;;;15.83;13.40;;;;;;;;;;5059712;28;20437;-9
2021/03/05 09:24:59;;;;;;;14.90;13.33;;;;;;;;;;5053025;28;20488;-10
2021/03/05 09:27:31;;;;;;;14.13;12.50;;;;;;;;;;5055301;28;20476;-9
2021/03/05 09:30:14;;;;;;;14.33;12.83;;;;;;;;;;5055492;28;20445;-9
2021/03/05 09:32:49;;;;;;;14.10;12.37;;;;;;;;;;5058844;28;20437;-8
2021/03/05 09:35:18;;;;;;;13.23;11.97;;;;;;;;;;5031941;28;20456;-8
2021/03/05 09:37:46;;;;;;;14.30;12.83;;;;;;;;;;5054094;28;20448;-9
2021/03/05 09:40:16;;;;;;;14.33;12.83;;;;;;;;;;5055678;28;20507;-8
2021/03/05 09:42:47;;;;;;;16.00;14.30;;;;;;;;;;5040448;28;20452;-10
2021/03/05 09:45:32;;;;;;;19.10;14.70;;;;;;;;;;5041658;28;20464;-10
2021/03/05 09:48:03;;;;;;;14.57;13.13;;;;;;;;;;5041718;28;21254;-8
2021/03/05 09:50:32;;;;;;;13.87;12.20;;;;;;;;;;5074699;28;20447;-8
2021/03/05 09:53:19;;;;;;;14.17;12.77;;;;;;;;;;5043882;28;21009;-10
2021/03/05 09:55:50;;;;;;;14.10;12.70;;;;;;;;;;5030132;28;20522;-9
2021/03/05 09:58:18;;;;;;;15.40;13.30;;;;;;;;;;5069135;28;20514;-9
2021/03/05 10:00:46;;;;;;;15.43;13.77;;;;;;;;;;5052893;28;21130;-9
2021/03/05 10:03:15;;;;;;;16.27;14.53;;;;;;;;;;5054587;28;20437;-10
2021/03/05 10:05:43;;;;;;;15.30;13.80;;;;;;;;;;5044523;28;20499;-11
2021/03/05 10:08:15;;;;;;;17.30;15.37;;;;;;;;;;5049314;28;20436;-9
2021/03/05 10:11:07;;;;;;;16.13;14.37;;;;;;;;;;5053947;28;20460;-9
2021/03/05 10:13:44;;;;;;;13.80;12.30;;;;;;;;;;5032161;28;20457;-9
2021/03/05 10:16:17;;;;;;;15.97;14.23;;;;;;;;;;5031599;28;20438;-9
2021/03/05 10:18:48;;;;;;;16.87;13.37;;;;;;;;;;5030407;28;20547;-10
2021/03/05 10:21:16;;;;;;;15.70;14.20;;;;;;;;;;5016218;28;20485;-11
2021/03/05 10:23:44;;;;;;;16.63;14.90;;;;;;;;;;5045681;28;20525;-9
2021/03/05 10:26:13;;;;;;;16.70;15.10;;;;;;;;;;5053568;28;20937;-9
2021/03/05 10:28:42;;;;;;;15.80;14.20;;;;;;;;;;5057814;28;20458;-9
2021/03/05 10:31:09;;;;;;;15.47;13.67;;;;;;;;;;5056623;28;20463;-9
2021/03/05 10:33:42;;;;;;;15.30;13.83;;;;;;;;;;5074216;28;20513;-9
2021/03/05 10:36:13;;;;;;;14.80;13.50;;;;;;;;;;5053035;28;20458;-9
2021/03/05 10:39:29;;;;;;;16.47;14.37;;;;;;;;;;5039083;28;20510;-10
2021/03/05 10:42:31;;;;;;;14.63;13.20;;;;;;;;;;5075360;28;20447;-9
2021/03/05 10:45:12;;;;;;;13.37;11.97;;;;;;;;;;5060731;28;20468;-9
2021/03/05 10:47:41;;;;;;;14.93;13.43;;;;;;;;;;5050871;28;20441;-9
2021/03/05 10:50:10;;;;;;;15.07;13.60;;;;;;;;;;5049575;28;20495;-9
2021/03/05 10:52:38;;;;;;;14.13;12.60;;;;;;;;;;5050331;28;20444;-10
2021/03/05 10:55:08;;;;;;;15.23;13.73;;;;;;;;;;5033296;28;20448;-9
2021/03/05 10:57:36;;;;;;;13.03;11.63;;;;;;;;;;5027947;28;20433;-9
2021/03/05 11:00:05;;;;;;;15.03;13.30;;;;;;;;;;5047302;28;21197;-10
2021/03/05 11:02:34;;;;;;;14.70;13.23;;;;;;;;;;5035675;28;20457;-11
2021/03/05 11:05:02;;;;;;;14.23;12.87;;;;;;;;;;5050256;28;20461;-9
2021/03/05 11:07:29;;;;;;;14.97;13.37;;;;;;;;;;5056877;28;20893;-9
2021/03/05 11:09:58;;;;;;;15.87;14.17;;;;;;;;;;5050875;28;20456;-9
2021/03/05 11:12:25;;;;;;;15.20;13.00;;;;;;;;;;5029723;28;20944;-10
2021/03/05 11:14:53;;;;;;;15.83;13.27;;;;;;;;;;5015621;28;20459;-9
2021/03/05 11:17:21;;;;;;;15.50;13.90;;;;;;;;;;5030068;28;20571;-10
2021/03/05 11:19:49;;;;;;;14.97;13.47;;;;;;;;;;5029217;28;20946;-11
2021/03/05 11:22:17;;;;;;;14.77;13.37;;;;;;;;;;5069665;28;20440;-10
2021/03/05 11:24:46;;;;;;;18.90;15.27;;;;;;;;;;5049832;28;20562;-10
2021/03/05 11:27:15;;;;;;;14.87;13.27;;;;;;;;;;5070753;28;20424;-9
2021/03/05 11:29:44;;;;;;;15.43;13.80;;;;;;;;;;5066026;28;20440;-10
2021/03/05 11:32:15;;;;;;;13.87;12.57;;;;;;;;;;5064801;28;20450;-8
2021/03/05 11:34:45;;;;;;;15.63;14.13;;;;;;;;;;5049332;28;20587;-9
2021/03/05 11:37:12;;;;;;;17.53;14.97;;;;;;;;;;5013634;28;20440;-9
2021/03/05 11:39:41;;;;;;;15.57;13.90;;;;;;;;;;5046556;28;20445;-9
2021/03/05 11:42:08;;;;;;;14.97;13.47;;;;;;;;;;5031016;28;20456;-10
2021/03/05 11:44:43;;;;;;;15.03;13.50;;;;;;;;;;5035167;28;20491;-8
2021/03/05 11:47:11;;;;;;;15.00;13.50;;;;;;;;;;5042375;28;20937;-8
2021/03/05 11:49:38;;;;;;;15.20;13.70;;;;;;;;;;5047797;28;20467;-8
2021/03/05 11:52:07;;;;;;;14.57;13.07;;;;;;;;;;5069599;28;20444;-11
2021/03/05 11:54:34;;;;;;;16.43;14.23;;;;;;;;;;5064536;28;20586;-8
2021/03/05 11:57:03;;;;;;;13.90;12.23;;;;;;;;;;5049799;28;20435;-10
2021/03/05 11:59:31;;;;;;;18.07;15.00;;;;;;;;;;5050212;28;20461;-11
2021/03/05 12:02:00;;;;;;;16.57;14.97;;;;;;;;;;5051711;28;21020;-9
2021/03/05 12:04:29;;;;;;;15.90;13.97;;;;;;;;;;5066059;28;20463;-11
2021/03/05 12:06:57;;;;;;;15.53;13.93;;;;;;;;;;5070056;28;20859;-11
2021/03/05 12:09:24;;;;;;;14.20;12.70;;;;;;;;;;5065359;28;20486;-10
2021/03/05 12:11:53;;;;;;;15.23;13.67;;;;;;;;;;5091531;28;20438;-10
2021/03/05 12:14:21;;;;;;;18.33;14.70;;;;;;;;;;5054607;28;20493;-9
2021/03/05 12:16:50;;;;;;;18.43;15.53;;;;;;;;;;5071793;28;20489;-10
2021/03/05 12:19:18;;;;;;;15.30;13.80;;;;;;;;;;5093349;28;20808;-10
2021/03/05 12:21:47;;;;;;;13.03;11.90;;;;;;;;;;5071238;28;20447;-9
2021/03/05 12:24:14;;;;;;;13.70;12.50;;;;;;;;;;5071832;28;20461;-9
2021/03/05 12:26:42;;;;;;;13.57;12.20;;;;;;;;;;5094869;28;20431;-10
2021/03/05 12:29:10;;;;;;;14.33;12.33;;;;;;;;;;5095550;28;20439;-10
2021/03/05 12:31:39;;;;;;;13.37;12.00;;;;;;;;;;5072850;28;20450;-8
2021/03/05 12:34:09;;;;;;;14.73;13.03;;;;;;;;;;5065054;28;20503;-10
2021/03/05 12:36:39;;;;;;;14.43;12.97;;;;;;;;;;5076497;28;20766;-8
2021/03/05 12:39:07;;;;;;;14.07;11.97;;;;;;;;;;5055924;28;20628;-8
2021/03/05 12:41:35;;;;;;;14.83;13.63;;;;;;;;;;5076131;28;20440;-9
2021/03/05 12:44:06;;;;;;;13.17;11.83;;;;;;;;;;5074823;28;20459;-8
2021/03/05 12:46:36;;;;;;;13.37;12.03;;;;;;;;;;5043009;28;20451;-9
2021/03/05 12:49:03;;;;;;;14.60;12.90;;;;;;;;;;5077510;28;20491;-9
2021/03/05 12:51:33;;;;;;;14.57;13.17;;;;;;;;;;5056748;28;21149;-9
2021/03/05 12:54:04;;;;;;;15.90;12.83;;;;;;;;;;5067218;28;20436;-8
2021/03/05 12:56:31;;;;;;;14.10;12.90;;;;;;;;;;5056954;28;20468;-10
2021/03/05 12:58:58;;;;;;;15.17;13.57;;;;;;;;;;5073735;28;20487;-9
2021/03/05 13:01:28;;;;;;;13.90;11.30;;;;;;;;;;5057302;28;20431;-9
2021/03/05 13:03:55;;;;;;;14.03;12.60;;;;;;;;;;5058610;28;20444;-10
2021/03/05 13:06:26;;;;;;;14.47;12.97;;;;;;;;;;5060305;28;20524;-10
2021/03/05 13:08:57;;;;;;;14.87;13.37;;;;;;;;;;5078455;28;20878;-10
2021/03/05 13:11:30;;;;;;;13.93;12.63;;;;;;;;;;5058569;28;20439;-9
2021/03/05 13:13:57;;;;;;;15.00;13.60;;;;;;;;;;5057713;28;20551;-8
2021/03/05 13:16:28;;;;;;;15.20;13.70;;;;;;;;;;5062021;28;20444;-9
2021/03/05 13:18:57;;;;;;;16.27;14.20;;;;;;;;;;5080961;28;20447;-9
2021/03/05 13:21:24;;;;;;;14.90;13.40;;;;;;;;;;5075089;28;20459;-9
2021/03/05 13:23:53;;;;;;;13.90;12.57;;;;;;;;;;5068327;28;20482;-9
2021/03/05 13:26:21;;;;;;;13.77;12.40;;;;;;;;;;5103002;28;20527;-9
2021/03/05 13:28:51;;;;;;;13.87;12.60;;;;;;;;;;5084191;28;20858;-9
2021/03/05 13:31:20;;;;;;;15.10;11.80;;;;;;;;;;5101722;28;20458;-9
2021/03/05 13:33:49;;;;;;;14.20;12.80;;;;;;;;;;5091361;28;20448;-8
2021/03/05 13:36:18;;;;;;;15.33;13.83;;;;;;;;;;5075486;28;20728;-8
2021/03/05 13:38:50;;;;;;;19.37;15.40;;;;;;;;;;5081908;28;21052;-8
2021/03/05 13:41:19;;;;;;;16.63;14.40;;;;;;;;;;5085822;28;20512;-9
2021/03/05 13:43:47;;;;;;;16.80;14.87;;;;;;;;;;5106682;28;20557;-8
2021/03/05 13:46:15;;;;;;;15.87;14.30;;;;;;;;;;5103273;28;20518;-9
2021/03/05 13:48:44;;;;;;;10.10;9.30;;;;;;;;;;5097772;28;20479;-8
2021/03/05 13:51:12;;;;;;;8.30;7.80;;;;;;;;;;5088468;28;20444;-8
2021/03/05 13:53:40;;;;;;;9.00;8.43;;;;;;;;;;5088242;28;20897;-9
2021/03/05 13:56:09;;;;;;;9.33;8.60;;;;;;;;;;5086474;28;20444;-8
2021/03/05 13:58:40;;;;;;;9.20;8.40;;;;;;;;;;5048623;28;20490;-9
2021/03/05 14:04:32;;;;;;;8.70;8.13;;;;;;;;;;5084814;28;20540;-10
2021/03/05 14:07:12;;;;;;;8.53;7.90;;;;;;;;;;5077973;28;20448;-10
2021/03/05 14:09:40;;;;;;;8.73;8.20;;;;;;;;;;5073512;28;20727;-9
2021/03/05 14:12:09;;;;;;;8.80;8.30;;;;;;;;;;5086443;28;20451;-10
2021/03/05 14:14:39;;;;;;;9.77;8.33;;;;;;;;;;5084931;28;20432;-10
2021/03/05 14:17:07;;;;;;;9.80;9.00;;;;;;;;;;5084346;28;20447;-10
2021/03/05 14:19:37;;;;;;;8.97;8.37;;;;;;;;;;5086655;28;20479;-10
2021/03/05 14:22:05;;;;;;;9.53;8.90;;;;;;;;;;5086489;28;20445;-8
2021/03/05 14:24:35;;;;;;;10.57;9.87;;;;;;;;;;5085260;28;20847;-8
2021/03/05 14:27:02;;;;;;;9.10;8.40;;;;;;;;;;5086796;28;21120;-8
2021/03/05 14:29:30;;;;;;;9.77;8.90;;;;;;;;;;5083219;28;20769;-9
2021/03/05 14:31:57;;;;;;;9.73;8.83;;;;;;;;;;5066298;28;20486;-9
2021/03/05 14:34:25;;;;;;;10.00;9.00;;;;;;;;;;5049601;28;20476;-8
2021/03/05 14:36:57;;;;;;;15.30;9.10;;;;;;;;;;5098731;28;20487;-8
2021/03/05 14:39:25;;;;;;;9.90;9.17;;;;;;;;;;5107101;28;20432;-9
2021/03/05 14:41:54;;;;;;;11.40;10.40;;;;;;;;;;5104688;28;20434;-9
2021/03/05 14:44:24;;;;;;;10.37;9.67;;;;;;;;;;5105322;28;20641;-9
2021/03/05 14:46:52;;;;;;;12.27;11.17;;;;;;;;;;5104456;28;20850;-8
2021/03/05 14:49:20;;;;;;;10.47;9.67;;;;;;;;;;5104994;28;20435;-8
2021/03/05 14:51:47;;;;;;;9.93;9.13;;;;;;;;;;5122125;27;20477;-8